createdAt,value
2023-04-13T00:03:22.053Z,9.00
2023-04-13T00:08:26.120Z,8.94
2023-04-13T00:13:28.666Z,9.01
2023-04-13T00:18:31.324Z,9.06
2023-04-13T00:23:35.937Z,8.88
2023-04-13T00:28:38.986Z,8.98
2023-04-13T00:33:41.525Z,8.75
2023-04-13T00:38:46.598Z,8.90
2023-04-13T00:43:50.712Z,8.77
2023-04-13T00:48:55.487Z,8.82
2023-04-13T00:54:00.005Z,8.48
2023-04-13T00:59:03.445Z,8.73
2023-04-13T01:04:06.621Z,8.77
2023-04-13T01:09:16.692Z,8.67
2023-04-13T01:21:10.040Z,8.92
2023-04-13T01:26:14.619Z,8.98
2023-04-13T01:31:19.659Z,8.96
2023-04-13T01:36:24.392Z,9.02
2023-04-13T01:41:27.474Z,8.99
2023-04-13T01:46:34.893Z,9.09
2023-04-13T01:51:45.095Z,9.14
2023-04-13T01:56:51.405Z,9.21
2023-04-13T02:01:57.385Z,9.11
2023-04-13T02:07:00.288Z,9.13
2023-04-13T02:12:08.772Z,9.09
2023-04-13T02:17:15.633Z,8.96
2023-04-13T02:22:18.363Z,8.93
2023-04-13T02:27:22.623Z,9.08
2023-04-13T02:32:26.564Z,9.09
2023-04-13T02:37:31.104Z,9.06
2023-04-13T02:42:33.725Z,9.07
2023-04-13T02:47:40.145Z,9.02
2023-04-13T02:52:46.737Z,9.14
2023-04-13T02:57:50.212Z,9.08
2023-04-13T03:02:55.645Z,9.11
2023-04-13T03:08:01.131Z,9.18
2023-04-13T03:13:04.285Z,9.11
2023-04-13T03:18:08.340Z,8.86
2023-04-13T03:23:12.511Z,8.73
2023-04-13T03:28:15.814Z,8.75
2023-04-13T03:33:22.580Z,8.72
2023-04-13T03:38:25.444Z,8.65
2023-04-13T03:43:28.743Z,8.60
2023-04-13T03:48:41.348Z,8.53
2023-04-13T03:53:46.949Z,8.39
2023-04-13T03:58:49.952Z,8.34
2023-04-13T04:03:58.709Z,8.33
2023-04-13T04:09:04.609Z,8.11
2023-04-13T04:14:12.508Z,8.59
2023-04-13T04:19:24.725Z,8.23
2023-04-13T04:24:29.704Z,8.32
2023-04-13T04:29:37.097Z,7.96
2023-04-13T04:34:54.845Z,8.21
2023-04-13T04:39:59.963Z,8.30
2023-04-13T04:45:04.387Z,8.37
2023-04-13T04:50:10.144Z,8.31
2023-04-13T04:55:20.375Z,8.24
2023-04-13T05:00:26.494Z,8.31
2023-04-13T05:05:56.944Z,8.10
2023-04-13T05:11:07.108Z,8.38
2023-04-13T05:16:10.873Z,8.47
2023-04-13T05:21:17.594Z,8.48
2023-04-13T05:26:26.170Z,8.54
2023-04-13T05:31:29.258Z,8.66
2023-04-13T05:36:36.713Z,8.43
2023-04-13T05:41:44.050Z,8.72
2023-04-13T05:46:47.453Z,8.76
2023-04-13T05:51:53.981Z,8.89
2023-04-13T05:57:01.588Z,8.99
2023-04-13T06:02:05.350Z,8.81
2023-04-13T06:07:09.474Z,8.73
2023-04-13T06:12:12.008Z,8.90
2023-04-13T06:17:14.545Z,8.96
2023-04-13T06:22:18.821Z,9.10
2023-04-13T06:27:21.865Z,9.11
2023-04-13T06:32:25.371Z,9.08
2023-04-13T06:37:30.140Z,9.24
2023-04-13T06:42:32.928Z,9.36
2023-04-13T06:47:55.497Z,9.22
2023-04-13T06:53:00.510Z,9.56
2023-04-13T06:58:04.302Z,9.69
2023-04-13T07:03:07.176Z,9.73
2023-04-13T07:08:13.889Z,9.72
2023-04-13T07:13:22.196Z,9.66
2023-04-13T07:18:25.743Z,9.70
2023-04-13T07:23:31.593Z,9.66
2023-04-13T07:28:34.667Z,9.61
2023-04-13T07:33:37.482Z,9.81
2023-04-13T07:38:42.175Z,9.83
2023-04-13T07:43:46.613Z,9.96
2023-04-13T07:48:49.277Z,9.83
2023-04-13T07:54:00.189Z,9.91
2023-04-13T07:59:04.912Z,9.92
2023-04-13T08:04:10.001Z,9.78
2023-04-13T08:09:15.819Z,9.64
2023-04-13T08:14:18.452Z,9.76
2023-04-13T08:19:24.588Z,9.75
2023-04-13T08:24:33.594Z,9.58
2023-04-13T08:29:36.418Z,9.87
2023-04-13T08:34:39.110Z,9.91
2023-04-13T08:39:43.102Z,9.76
2023-04-13T08:44:47.422Z,9.86
2023-04-13T08:49:51.483Z,10.22
2023-04-13T08:55:04.910Z,10.19
2023-04-13T09:00:14.206Z,10.38
2023-04-13T09:05:20.813Z,10.61
2023-04-13T09:10:30.172Z,10.74
2023-04-13T09:15:33.339Z,10.36
2023-04-13T09:20:57.753Z,10.84
2023-04-13T09:26:09.467Z,10.95
2023-04-13T09:31:13.876Z,10.80
2023-04-13T09:36:18.908Z,10.86
2023-04-13T09:41:37.188Z,10.96
2023-04-13T09:46:39.758Z,11.05
2023-04-13T09:51:42.857Z,11.20
2023-04-13T09:56:52.366Z,11.15
2023-04-13T10:01:55.722Z,11.20
2023-04-13T10:06:58.527Z,11.29
2023-04-13T10:12:03.326Z,11.43
2023-04-13T10:17:28.916Z,11.55
2023-04-13T10:22:31.639Z,11.42
2023-04-13T10:27:36.430Z,11.40
2023-04-13T10:32:39.059Z,11.55
2023-04-13T10:37:44.427Z,11.42
2023-04-13T10:47:54.915Z,11.62
2023-04-13T10:53:01.951Z,11.63
2023-04-13T10:58:18.067Z,11.96
2023-04-13T11:03:20.864Z,12.10
2023-04-13T11:08:24.639Z,12.21
2023-04-13T11:13:29.178Z,12.30
2023-04-13T11:18:32.735Z,12.30
2023-04-13T11:23:35.898Z,12.36
2023-04-13T11:28:43.244Z,12.56
2023-04-13T11:33:49.910Z,12.59
2023-04-13T11:38:54.273Z,12.61
2023-04-13T11:43:58.316Z,12.55
2023-04-13T11:49:01.650Z,12.78
2023-04-13T11:54:05.004Z,12.99
2023-04-13T11:59:09.991Z,13.00
2023-04-13T12:04:16.465Z,13.16
2023-04-13T12:09:22.132Z,13.60
2023-04-13T12:19:34.815Z,13.63
2023-04-13T12:24:39.967Z,13.70
2023-04-13T12:29:44.086Z,13.71
2023-04-13T12:34:47.228Z,13.72
2023-04-13T12:39:49.758Z,13.89
2023-04-13T12:44:55.012Z,13.69
2023-04-13T12:49:57.598Z,13.95
2023-04-13T12:55:00.340Z,14.12
2023-04-13T13:00:10.480Z,14.39
2023-04-13T13:05:13.034Z,14.72
2023-04-13T13:15:26.016Z,14.42
2023-04-13T13:20:28.968Z,14.64
2023-04-13T13:25:32.587Z,14.65
2023-04-13T13:30:38.061Z,14.64
2023-04-13T13:35:41.584Z,14.32
2023-04-13T13:40:44.159Z,13.90
2023-04-13T13:45:48.668Z,14.43
2023-04-13T13:50:51.880Z,14.76
2023-04-13T13:55:56.178Z,15.18
2023-04-13T14:01:00.360Z,15.50
2023-04-13T14:06:03.187Z,15.71
2023-04-13T14:11:05.956Z,16.04
2023-04-13T14:16:10.060Z,15.88
2023-04-13T14:21:12.763Z,16.25
2023-04-13T14:26:15.742Z,16.19
2023-04-13T14:31:19.700Z,16.52
2023-04-13T14:36:22.333Z,16.36
2023-04-13T14:41:24.894Z,16.28
2023-04-13T14:46:29.212Z,15.93
2023-04-13T14:51:32.090Z,15.23
2023-04-13T14:56:34.754Z,15.66
2023-04-13T15:01:38.685Z,15.71
2023-04-13T15:06:41.248Z,15.97
2023-04-13T15:11:45.229Z,15.58
2023-04-13T15:16:49.483Z,15.36
2023-04-13T15:21:52.243Z,15.62
2023-04-13T15:26:55.407Z,15.31
2023-04-13T15:31:59.976Z,14.87
2023-04-13T15:37:02.561Z,15.13
2023-04-13T15:42:05.408Z,14.99
2023-04-13T15:47:09.530Z,14.85
2023-04-13T15:52:12.089Z,14.88
2023-04-13T15:57:15.137Z,14.78
2023-04-13T16:02:19.103Z,14.70
2023-04-13T16:07:21.806Z,14.75
2023-04-13T16:12:26.559Z,14.76
2023-04-13T16:17:34.251Z,14.83
2023-04-13T16:22:37.822Z,14.74
2023-04-13T16:27:40.702Z,14.57
2023-04-13T16:32:46.204Z,14.51
2023-04-13T16:37:49.369Z,14.43
2023-04-13T16:42:52.140Z,14.48
2023-04-13T16:47:56.406Z,14.54
2023-04-13T16:52:59.031Z,14.72
2023-04-13T16:58:02.205Z,14.65
2023-04-13T17:03:06.203Z,14.59
2023-04-13T17:08:09.715Z,14.59
2023-04-13T17:13:12.367Z,14.54
2023-04-13T17:18:16.334Z,14.56
2023-04-13T17:23:18.893Z,14.52
2023-04-13T17:28:23.400Z,14.45
2023-04-13T17:33:28.524Z,14.39
2023-04-13T17:38:31.076Z,14.30
2023-04-13T17:43:34.047Z,14.16
2023-04-13T17:48:38.346Z,14.15
2023-04-13T17:53:40.970Z,14.05
2023-04-13T17:58:43.610Z,14.00
2023-04-13T18:03:48.355Z,13.77
2023-04-13T18:08:51.145Z,13.69
2023-04-13T18:13:53.854Z,13.50
2023-04-13T18:18:57.964Z,13.40
2023-04-13T18:24:01.923Z,13.26
2023-04-13T18:29:04.983Z,13.16
2023-04-13T18:34:12.593Z,13.07
2023-04-13T18:39:15.260Z,12.91
2023-04-13T18:44:17.950Z,12.83
2023-04-13T18:49:22.014Z,12.75
2023-04-13T18:54:24.609Z,12.64
2023-04-13T18:59:28.054Z,12.52
2023-04-13T19:04:32.032Z,12.31
2023-04-13T19:09:35.211Z,12.18
2023-04-13T19:14:37.756Z,11.92
2023-04-13T19:19:41.971Z,11.88
2023-04-13T19:24:45.703Z,11.78
2023-04-13T19:29:49.258Z,11.73
2023-04-13T19:34:54.149Z,11.71
2023-04-13T19:39:57.690Z,11.75
2023-04-13T19:45:01.200Z,11.68
2023-04-13T19:50:07.240Z,11.62
2023-04-13T19:55:12.143Z,11.47
2023-04-13T20:00:20.723Z,11.22
2023-04-13T20:05:26.080Z,11.66
2023-04-13T20:10:31.851Z,11.56
2023-04-13T20:15:35.387Z,11.56
2023-04-13T20:20:42.583Z,11.41
2023-04-13T20:25:46.162Z,11.44
2023-04-13T20:30:49.686Z,11.27
2023-04-13T20:35:55.527Z,10.94
2023-04-13T20:40:59.409Z,10.90
2023-04-13T20:46:03.199Z,10.96
2023-04-13T20:51:08.348Z,10.97
2023-04-13T20:56:12.095Z,10.89
2023-04-13T21:01:15.899Z,10.81
2023-04-13T21:06:22.969Z,10.87
2023-04-13T21:11:26.367Z,10.88
2023-04-13T21:16:30.401Z,10.77
2023-04-13T21:21:37.117Z,10.42
2023-04-13T21:26:40.318Z,10.33
2023-04-13T21:31:43.708Z,10.21
2023-04-13T21:41:54.547Z,10.38
2023-04-13T21:46:57.181Z,9.81
2023-04-13T21:52:01.071Z,10.46
2023-04-13T21:57:05.104Z,10.47
2023-04-13T22:02:07.817Z,10.48
2023-04-13T22:07:12.216Z,10.48
2023-04-13T22:12:16.207Z,10.23
2023-04-13T22:17:18.742Z,10.25
2023-04-13T22:22:22.982Z,10.15
2023-04-13T22:27:26.130Z,10.11
2023-04-13T22:32:28.972Z,10.06
2023-04-13T22:37:35.263Z,10.07
2023-04-13T22:42:37.844Z,10.06
2023-04-13T22:47:40.434Z,10.11
2023-04-13T22:52:44.319Z,9.99
2023-04-13T22:57:47.197Z,9.96
2023-04-13T23:02:50.404Z,9.93
2023-04-13T23:07:54.789Z,9.89
2023-04-13T23:12:57.751Z,9.81
2023-04-13T23:18:02.302Z,9.72
2023-04-13T23:23:06.447Z,9.60
2023-04-13T23:28:08.981Z,9.52
2023-04-13T23:33:11.641Z,9.47
2023-04-13T23:38:15.500Z,9.27
2023-04-13T23:43:18.037Z,8.92
2023-04-13T23:48:21.743Z,9.14
2023-04-13T23:53:25.773Z,9.17
2023-04-13T23:58:28.305Z,9.18
